Terminal Aerodrome Forecast
Issued by NWS

Current Version | Previous Version | Text Only | Print | Product List | Glossary On
Versions: 1 2 3 4 5 6 7 8 9 10 11 12 13
002
FTPA31 PHFO 271735
TAFHOG
TAF
PHOG 271735Z 2718/2818 04014KT P6SM FEW035 SCT050
     FM272000 05018G26KT P6SM FEW035 SCT050
     FM280600 05012G20KT P6SM VCSH FEW035 SCT050
     FM281200 05008KT P6SM VCSH SCT035 BKN050
      AMD LTD TO VIS AND WIND 2810/2816=

USA.gov is the U.S. government's official web portal to all federal, state and local government web resources and services.